sensor_id;sensor_type;location;lat;lon;timestamp;P1;durP1;ratioP1;P2;durP2;ratioP2
9964;SDS011;5023;53.554;9.964;2022-12-18T00:03:19;19.70;;;15.73;;
9964;SDS011;5023;53.554;9.964;2022-12-18T00:09:39;19.73;;;14.07;;
9964;SDS011;5023;53.554;9.964;2022-12-18T00:15:33;26.00;;;18.93;;
9964;SDS011;5023;53.554;9.964;2022-12-18T00:21:19;20.47;;;14.50;;
9964;SDS011;5023;53.554;9.964;2022-12-18T00:27:23;16.73;;;13.40;;
9964;SDS011;5023;53.554;9.964;2022-12-18T00:33:11;16.60;;;13.00;;
9964;SDS011;5023;53.554;9.964;2022-12-18T00:38:56;29.47;;;16.77;;
9964;SDS011;5023;53.554;9.964;2022-12-18T00:44:52;23.43;;;15.83;;
9964;SDS011;5023;53.554;9.964;2022-12-18T00:50:40;22.53;;;15.03;;
9964;SDS011;5023;53.554;9.964;2022-12-18T00:56:33;20.67;;;14.70;;
9964;SDS011;5023;53.554;9.964;2022-12-18T01:02:45;24.00;;;16.00;;
9964;SDS011;5023;53.554;9.964;2022-12-18T01:08:24;22.27;;;14.53;;
9964;SDS011;5023;53.554;9.964;2022-12-18T01:13:28;27.70;;;17.47;;
9964;SDS011;5023;53.554;9.964;2022-12-18T01:18:44;20.77;;;14.87;;
9964;SDS011;5023;53.554;9.964;2022-12-18T01:24:22;20.43;;;13.90;;
9964;SDS011;5023;53.554;9.964;2022-12-18T01:29:43;19.23;;;13.47;;
9964;SDS011;5023;53.554;9.964;2022-12-18T01:35:19;22.43;;;14.13;;
9964;SDS011;5023;53.554;9.964;2022-12-18T01:40:48;20.73;;;14.23;;
9964;SDS011;5023;53.554;9.964;2022-12-18T01:46:35;20.43;;;13.67;;
9964;SDS011;5023;53.554;9.964;2022-12-18T01:51:51;19.10;;;12.83;;
9964;SDS011;5023;53.554;9.964;2022-12-18T01:56:56;19.40;;;12.83;;
9964;SDS011;5023;53.554;9.964;2022-12-18T02:02:55;29.07;;;17.53;;
9964;SDS011;5023;53.554;9.964;2022-12-18T02:08:30;20.77;;;14.10;;
9964;SDS011;5023;53.554;9.964;2022-12-18T02:14:33;21.90;;;12.33;;
9964;SDS011;5023;53.554;9.964;2022-12-18T02:26:43;17.67;;;12.30;;
9964;SDS011;5023;53.554;9.964;2022-12-18T02:32:49;17.30;;;12.23;;
9964;SDS011;5023;53.554;9.964;2022-12-18T02:38:52;17.40;;;12.47;;
9964;SDS011;5023;53.554;9.964;2022-12-18T02:44:39;20.40;;;13.47;;
9964;SDS011;5023;53.554;9.964;2022-12-18T02:51:05;17.00;;;12.13;;
9964;SDS011;5023;53.554;9.964;2022-12-18T02:57:03;18.03;;;13.00;;
9964;SDS011;5023;53.554;9.964;2022-12-18T03:03:35;17.83;;;12.27;;
9964;SDS011;5023;53.554;9.964;2022-12-18T03:09:49;16.03;;;11.73;;
9964;SDS011;5023;53.554;9.964;2022-12-18T03:15:49;16.57;;;11.57;;
9964;SDS011;5023;53.554;9.964;2022-12-18T03:27:58;14.90;;;11.60;;
9964;SDS011;5023;53.554;9.964;2022-12-18T03:33:51;16.90;;;11.33;;
9964;SDS011;5023;53.554;9.964;2022-12-18T03:39:50;16.97;;;11.60;;
9964;SDS011;5023;53.554;9.964;2022-12-18T03:45:34;17.77;;;12.83;;
9964;SDS011;5023;53.554;9.964;2022-12-18T03:52:01;21.60;;;14.00;;
9964;SDS011;5023;53.554;9.964;2022-12-18T03:57:39;22.17;;;15.00;;
9964;SDS011;5023;53.554;9.964;2022-12-18T04:03:24;25.03;;;15.03;;
9964;SDS011;5023;53.554;9.964;2022-12-18T04:09:31;24.00;;;14.43;;
9964;SDS011;5023;53.554;9.964;2022-12-18T04:15:20;19.00;;;12.70;;
9964;SDS011;5023;53.554;9.964;2022-12-18T04:20:57;17.43;;;12.70;;
9964;SDS011;5023;53.554;9.964;2022-12-18T04:26:54;17.40;;;12.67;;
9964;SDS011;5023;53.554;9.964;2022-12-18T04:31:57;14.70;;;11.23;;
9964;SDS011;5023;53.554;9.964;2022-12-18T04:37:52;17.20;;;11.50;;
9964;SDS011;5023;53.554;9.964;2022-12-18T04:43:48;16.17;;;11.27;;
9964;SDS011;5023;53.554;9.964;2022-12-18T04:49:24;15.70;;;11.70;;
9964;SDS011;5023;53.554;9.964;2022-12-18T04:55:01;18.37;;;11.60;;
9964;SDS011;5023;53.554;9.964;2022-12-18T05:00:35;18.33;;;11.37;;
9964;SDS011;5023;53.554;9.964;2022-12-18T05:06:47;14.57;;;10.60;;
9964;SDS011;5023;53.554;9.964;2022-12-18T05:12:31;16.07;;;10.70;;
9964;SDS011;5023;53.554;9.964;2022-12-18T05:18:44;14.63;;;10.53;;
9964;SDS011;5023;53.554;9.964;2022-12-18T05:24:22;15.10;;;11.07;;
9964;SDS011;5023;53.554;9.964;2022-12-18T05:30:11;14.20;;;10.93;;
9964;SDS011;5023;53.554;9.964;2022-12-18T05:35:56;14.57;;;10.10;;
9964;SDS011;5023;53.554;9.964;2022-12-18T05:41:40;15.93;;;10.77;;
9964;SDS011;5023;53.554;9.964;2022-12-18T05:47:16;19.03;;;11.93;;
9964;SDS011;5023;53.554;9.964;2022-12-18T05:52:51;13.90;;;10.47;;
9964;SDS011;5023;53.554;9.964;2022-12-18T05:58:33;14.17;;;10.37;;
9964;SDS011;5023;53.554;9.964;2022-12-18T06:04:09;16.27;;;10.33;;
9964;SDS011;5023;53.554;9.964;2022-12-18T06:10:07;14.13;;;10.70;;
9964;SDS011;5023;53.554;9.964;2022-12-18T06:15:42;15.47;;;10.47;;
9964;SDS011;5023;53.554;9.964;2022-12-18T06:21:18;14.77;;;10.60;;
9964;SDS011;5023;53.554;9.964;2022-12-18T06:27:31;17.37;;;11.33;;
9964;SDS011;5023;53.554;9.964;2022-12-18T06:33:54;19.83;;;11.70;;
9964;SDS011;5023;53.554;9.964;2022-12-18T06:39:31;17.60;;;11.70;;
9964;SDS011;5023;53.554;9.964;2022-12-18T06:45:28;18.63;;;13.20;;
9964;SDS011;5023;53.554;9.964;2022-12-18T06:51:17;13.90;;;10.43;;
9964;SDS011;5023;53.554;9.964;2022-12-18T06:57:23;16.63;;;12.60;;
9964;SDS011;5023;53.554;9.964;2022-12-18T07:03:20;18.97;;;13.50;;
9964;SDS011;5023;53.554;9.964;2022-12-18T07:08:58;17.50;;;11.80;;
9964;SDS011;5023;53.554;9.964;2022-12-18T07:14:39;16.77;;;12.13;;
9964;SDS011;5023;53.554;9.964;2022-12-18T07:20:59;14.83;;;11.37;;
9964;SDS011;5023;53.554;9.964;2022-12-18T07:26:41;18.20;;;11.83;;
9964;SDS011;5023;53.554;9.964;2022-12-18T07:32:24;16.30;;;11.90;;
9964;SDS011;5023;53.554;9.964;2022-12-18T07:38:24;16.47;;;11.27;;
9964;SDS011;5023;53.554;9.964;2022-12-18T07:44:23;16.67;;;11.40;;
9964;SDS011;5023;53.554;9.964;2022-12-18T07:56:13;16.40;;;10.23;;
9964;SDS011;5023;53.554;9.964;2022-12-18T08:02:11;15.30;;;11.27;;
9964;SDS011;5023;53.554;9.964;2022-12-18T08:07:54;16.57;;;11.13;;
9964;SDS011;5023;53.554;9.964;2022-12-18T08:13:30;18.77;;;11.93;;
9964;SDS011;5023;53.554;9.964;2022-12-18T08:19:33;14.13;;;10.77;;
9964;SDS011;5023;53.554;9.964;2022-12-18T08:25:14;19.90;;;12.97;;
9964;SDS011;5023;53.554;9.964;2022-12-18T08:30:52;18.37;;;12.67;;
9964;SDS011;5023;53.554;9.964;2022-12-18T08:36:51;16.40;;;12.03;;
9964;SDS011;5023;53.554;9.964;2022-12-18T08:42:26;17.80;;;12.70;;
9964;SDS011;5023;53.554;9.964;2022-12-18T08:48:27;16.70;;;12.30;;
9964;SDS011;5023;53.554;9.964;2022-12-18T08:54:01;20.23;;;12.83;;
9964;SDS011;5023;53.554;9.964;2022-12-18T08:59:59;18.90;;;13.83;;
9964;SDS011;5023;53.554;9.964;2022-12-18T09:12:22;17.27;;;12.60;;
9964;SDS011;5023;53.554;9.964;2022-12-18T09:18:22;19.03;;;11.90;;
9964;SDS011;5023;53.554;9.964;2022-12-18T09:23:58;18.23;;;12.40;;
9964;SDS011;5023;53.554;9.964;2022-12-18T09:35:50;15.30;;;11.77;;
9964;SDS011;5023;53.554;9.964;2022-12-18T09:41:50;16.83;;;12.33;;
9964;SDS011;5023;53.554;9.964;2022-12-18T09:47:27;18.83;;;13.40;;
9964;SDS011;5023;53.554;9.964;2022-12-18T09:53:11;20.53;;;13.27;;
9964;SDS011;5023;53.554;9.964;2022-12-18T09:59:29;21.27;;;14.17;;
9964;SDS011;5023;53.554;9.964;2022-12-18T10:05:17;18.87;;;13.73;;
9964;SDS011;5023;53.554;9.964;2022-12-18T10:17:24;21.40;;;14.33;;
9964;SDS011;5023;53.554;9.964;2022-12-18T10:23:43;18.37;;;13.57;;
9964;SDS011;5023;53.554;9.964;2022-12-18T10:29:48;21.37;;;14.40;;
9964;SDS011;5023;53.554;9.964;2022-12-18T10:42:09;21.10;;;15.27;;
9964;SDS011;5023;53.554;9.964;2022-12-18T10:48:17;20.87;;;14.80;;
9964;SDS011;5023;53.554;9.964;2022-12-18T10:54:19;22.27;;;14.80;;
9964;SDS011;5023;53.554;9.964;2022-12-18T11:00:26;19.47;;;13.30;;
9964;SDS011;5023;53.554;9.964;2022-12-18T11:06:24;19.63;;;13.30;;
9964;SDS011;5023;53.554;9.964;2022-12-18T11:12:00;18.63;;;12.97;;
9964;SDS011;5023;53.554;9.964;2022-12-18T11:18:00;20.50;;;13.60;;
9964;SDS011;5023;53.554;9.964;2022-12-18T11:23:58;17.77;;;12.67;;
9964;SDS011;5023;53.554;9.964;2022-12-18T11:29:37;21.33;;;14.30;;
9964;SDS011;5023;53.554;9.964;2022-12-18T11:35:17;19.20;;;13.13;;
9964;SDS011;5023;53.554;9.964;2022-12-18T11:41:14;19.27;;;12.30;;
9964;SDS011;5023;53.554;9.964;2022-12-18T11:47:21;18.57;;;12.50;;
9964;SDS011;5023;53.554;9.964;2022-12-18T11:53:15;18.97;;;12.50;;
9964;SDS011;5023;53.554;9.964;2022-12-18T11:59:15;17.07;;;12.53;;
9964;SDS011;5023;53.554;9.964;2022-12-18T12:05:24;16.13;;;11.90;;
9964;SDS011;5023;53.554;9.964;2022-12-18T12:11:43;16.77;;;12.53;;
9964;SDS011;5023;53.554;9.964;2022-12-18T12:17:45;16.73;;;12.13;;
9964;SDS011;5023;53.554;9.964;2022-12-18T12:23:47;20.87;;;13.40;;
9964;SDS011;5023;53.554;9.964;2022-12-18T12:29:54;20.27;;;12.93;;
9964;SDS011;5023;53.554;9.964;2022-12-18T12:35:58;19.43;;;13.17;;
9964;SDS011;5023;53.554;9.964;2022-12-18T12:41:41;19.97;;;13.37;;
9964;SDS011;5023;53.554;9.964;2022-12-18T12:47:07;18.90;;;12.30;;
9964;SDS011;5023;53.554;9.964;2022-12-18T12:52:59;19.77;;;13.70;;
9964;SDS011;5023;53.554;9.964;2022-12-18T12:58:42;20.93;;;13.73;;
9964;SDS011;5023;53.554;9.964;2022-12-18T13:03:58;20.00;;;13.00;;
9964;SDS011;5023;53.554;9.964;2022-12-18T13:10:11;20.40;;;12.63;;
9964;SDS011;5023;53.554;9.964;2022-12-18T13:16:23;19.73;;;12.40;;
9964;SDS011;5023;53.554;9.964;2022-12-18T13:22:01;21.30;;;13.43;;
9964;SDS011;5023;53.554;9.964;2022-12-18T13:28:03;24.03;;;14.43;;
9964;SDS011;5023;53.554;9.964;2022-12-18T13:34:11;21.43;;;13.67;;
9964;SDS011;5023;53.554;9.964;2022-12-18T13:46:47;23.17;;;14.60;;
9964;SDS011;5023;53.554;9.964;2022-12-18T13:53:15;21.63;;;14.13;;
9964;SDS011;5023;53.554;9.964;2022-12-18T13:59:19;24.10;;;14.63;;
9964;SDS011;5023;53.554;9.964;2022-12-18T14:04:56;23.97;;;14.77;;
9964;SDS011;5023;53.554;9.964;2022-12-18T14:10:45;24.77;;;14.87;;
9964;SDS011;5023;53.554;9.964;2022-12-18T14:16:21;20.27;;;13.73;;
9964;SDS011;5023;53.554;9.964;2022-12-18T14:22:23;26.60;;;15.57;;
9964;SDS011;5023;53.554;9.964;2022-12-18T14:28:17;23.10;;;14.37;;
9964;SDS011;5023;53.554;9.964;2022-12-18T15:04:00;26.37;;;15.53;;
9964;SDS011;5023;53.554;9.964;2022-12-18T15:10:01;29.03;;;16.97;;
9964;SDS011;5023;53.554;9.964;2022-12-18T15:15:44;31.83;;;17.23;;
9964;SDS011;5023;53.554;9.964;2022-12-18T15:21:21;34.83;;;20.67;;
9964;SDS011;5023;53.554;9.964;2022-12-18T15:27:23;27.13;;;16.63;;
9964;SDS011;5023;53.554;9.964;2022-12-18T15:39:41;29.27;;;17.10;;
9964;SDS011;5023;53.554;9.964;2022-12-18T15:45:59;28.77;;;17.07;;
9964;SDS011;5023;53.554;9.964;2022-12-18T15:51:35;26.07;;;15.93;;
9964;SDS011;5023;53.554;9.964;2022-12-18T15:57:13;32.40;;;17.93;;
9964;SDS011;5023;53.554;9.964;2022-12-18T16:03:11;28.77;;;16.77;;
9964;SDS011;5023;53.554;9.964;2022-12-18T16:09:10;30.67;;;18.27;;
9964;SDS011;5023;53.554;9.964;2022-12-18T16:20:59;30.93;;;17.53;;
9964;SDS011;5023;53.554;9.964;2022-12-18T16:27:17;29.03;;;17.87;;
9964;SDS011;5023;53.554;9.964;2022-12-18T16:32:52;28.33;;;16.83;;
9964;SDS011;5023;53.554;9.964;2022-12-18T16:38:29;32.40;;;17.20;;
9964;SDS011;5023;53.554;9.964;2022-12-18T16:44:28;33.53;;;19.67;;
9964;SDS011;5023;53.554;9.964;2022-12-18T16:50:09;30.70;;;16.90;;
9964;SDS011;5023;53.554;9.964;2022-12-18T17:01:58;28.10;;;16.87;;
9964;SDS011;5023;53.554;9.964;2022-12-18T17:07:58;28.23;;;16.97;;
9964;SDS011;5023;53.554;9.964;2022-12-18T17:13:00;29.30;;;17.40;;
9964;SDS011;5023;53.554;9.964;2022-12-18T17:18:36;34.03;;;17.67;;
9964;SDS011;5023;53.554;9.964;2022-12-18T17:24:11;28.77;;;16.87;;
9964;SDS011;5023;53.554;9.964;2022-12-18T17:29:46;29.03;;;16.47;;
9964;SDS011;5023;53.554;9.964;2022-12-18T17:35:26;27.67;;;16.43;;
9964;SDS011;5023;53.554;9.964;2022-12-18T17:41:24;24.20;;;15.97;;
9964;SDS011;5023;53.554;9.964;2022-12-18T17:47:24;26.67;;;15.70;;
9964;SDS011;5023;53.554;9.964;2022-12-18T17:52:27;25.23;;;16.03;;
9964;SDS011;5023;53.554;9.964;2022-12-18T17:58:02;24.47;;;15.00;;
9964;SDS011;5023;53.554;9.964;2022-12-18T18:04:02;27.63;;;16.70;;
9964;SDS011;5023;53.554;9.964;2022-12-18T18:09:38;23.73;;;14.97;;
9964;SDS011;5023;53.554;9.964;2022-12-18T18:15:17;25.90;;;15.10;;
9964;SDS011;5023;53.554;9.964;2022-12-18T18:20:56;28.10;;;16.97;;
9964;SDS011;5023;53.554;9.964;2022-12-18T18:26:42;21.83;;;14.87;;
9964;SDS011;5023;53.554;9.964;2022-12-18T18:32:36;21.50;;;13.63;;
9964;SDS011;5023;53.554;9.964;2022-12-18T18:38:10;18.30;;;13.20;;
9964;SDS011;5023;53.554;9.964;2022-12-18T18:43:54;24.93;;;13.90;;
9964;SDS011;5023;53.554;9.964;2022-12-18T18:49:52;20.77;;;13.20;;
9964;SDS011;5023;53.554;9.964;2022-12-18T18:55:33;21.70;;;12.87;;
9964;SDS011;5023;53.554;9.964;2022-12-18T19:01:11;17.90;;;12.40;;
9964;SDS011;5023;53.554;9.964;2022-12-18T19:07:08;22.30;;;12.87;;
9964;SDS011;5023;53.554;9.964;2022-12-18T19:12:11;16.43;;;11.73;;
9964;SDS011;5023;53.554;9.964;2022-12-18T19:17:32;16.57;;;10.93;;
9964;SDS011;5023;53.554;9.964;2022-12-18T19:23:14;15.27;;;11.00;;
9964;SDS011;5023;53.554;9.964;2022-12-18T19:28:48;22.57;;;13.73;;
9964;SDS011;5023;53.554;9.964;2022-12-18T19:34:25;18.90;;;12.00;;
9964;SDS011;5023;53.554;9.964;2022-12-18T19:40:06;19.27;;;12.90;;
9964;SDS011;5023;53.554;9.964;2022-12-18T19:46:06;16.93;;;11.60;;
9964;SDS011;5023;53.554;9.964;2022-12-18T19:58:16;20.27;;;12.10;;
9964;SDS011;5023;53.554;9.964;2022-12-18T20:04:35;19.33;;;11.73;;
9964;SDS011;5023;53.554;9.964;2022-12-18T20:09:57;19.83;;;12.07;;
9964;SDS011;5023;53.554;9.964;2022-12-18T20:15:33;21.07;;;12.73;;
9964;SDS011;5023;53.554;9.964;2022-12-18T20:21:31;23.03;;;14.23;;
9964;SDS011;5023;53.554;9.964;2022-12-18T20:27:10;21.47;;;13.40;;
9964;SDS011;5023;53.554;9.964;2022-12-18T20:39:21;20.53;;;12.57;;
9964;SDS011;5023;53.554;9.964;2022-12-18T20:44:58;22.63;;;12.77;;
9964;SDS011;5023;53.554;9.964;2022-12-18T20:50:26;26.77;;;16.53;;
9964;SDS011;5023;53.554;9.964;2022-12-18T20:56:07;24.17;;;13.97;;
9964;SDS011;5023;53.554;9.964;2022-12-18T21:02:26;18.23;;;11.57;;
9964;SDS011;5023;53.554;9.964;2022-12-18T21:08:15;22.53;;;13.47;;
9964;SDS011;5023;53.554;9.964;2022-12-18T21:13:37;19.90;;;13.17;;
9964;SDS011;5023;53.554;9.964;2022-12-18T21:19:12;20.87;;;13.57;;
9964;SDS011;5023;53.554;9.964;2022-12-18T21:25:11;23.10;;;13.97;;
9964;SDS011;5023;53.554;9.964;2022-12-18T21:30:42;22.10;;;14.20;;
9964;SDS011;5023;53.554;9.964;2022-12-18T21:36:41;24.37;;;15.17;;
9964;SDS011;5023;53.554;9.964;2022-12-18T21:42:22;24.27;;;15.93;;
9964;SDS011;5023;53.554;9.964;2022-12-18T21:47:43;31.33;;;16.47;;
9964;SDS011;5023;53.554;9.964;2022-12-18T21:53:22;29.73;;;17.47;;
9964;SDS011;5023;53.554;9.964;2022-12-18T21:58:57;26.63;;;15.87;;
9964;SDS011;5023;53.554;9.964;2022-12-18T22:04:04;26.30;;;16.57;;
9964;SDS011;5023;53.554;9.964;2022-12-18T22:09:55;25.87;;;17.37;;
9964;SDS011;5023;53.554;9.964;2022-12-18T22:15:31;28.80;;;16.13;;
9964;SDS011;5023;53.554;9.964;2022-12-18T22:21:20;23.63;;;14.17;;
9964;SDS011;5023;53.554;9.964;2022-12-18T22:26:56;26.47;;;16.93;;
9964;SDS011;5023;53.554;9.964;2022-12-18T22:32:37;24.63;;;14.53;;
9964;SDS011;5023;53.554;9.964;2022-12-18T22:38:01;24.33;;;15.40;;
9964;SDS011;5023;53.554;9.964;2022-12-18T22:43:59;24.63;;;15.47;;
9964;SDS011;5023;53.554;9.964;2022-12-18T22:49:33;22.23;;;14.37;;
9964;SDS011;5023;53.554;9.964;2022-12-18T22:55:10;24.87;;;14.80;;
9964;SDS011;5023;53.554;9.964;2022-12-18T23:01:28;23.70;;;14.43;;
9964;SDS011;5023;53.554;9.964;2022-12-18T23:07:04;21.10;;;14.37;;
9964;SDS011;5023;53.554;9.964;2022-12-18T23:12:40;23.73;;;15.00;;
9964;SDS011;5023;53.554;9.964;2022-12-18T23:18:19;26.17;;;15.23;;
9964;SDS011;5023;53.554;9.964;2022-12-18T23:23:54;25.20;;;15.07;;
9964;SDS011;5023;53.554;9.964;2022-12-18T23:29:30;26.53;;;15.40;;
9964;SDS011;5023;53.554;9.964;2022-12-18T23:35:09;23.73;;;15.13;;
9964;SDS011;5023;53.554;9.964;2022-12-18T23:41:09;23.90;;;15.63;;
9964;SDS011;5023;53.554;9.964;2022-12-18T23:46:47;24.43;;;14.43;;
9964;SDS011;5023;53.554;9.964;2022-12-18T23:52:26;25.77;;;16.17;;
9964;SDS011;5023;53.554;9.964;2022-12-18T23:57:28;32.70;;;22.27;;
